Архив погоды в Белинском

Метеограмма Белинский
Пятница, 23 Июня
Время местн. Темп Ветер Видим Явления Облачность нижн/средн/верх Атм. давл. Влжн Точка росы ВНГО R Сост. почвы Tg s
Напр Скр Прв ур.ст ур.м изм
12:00 +18.4° Ю,Ю-З 3 - 20 км - облачно с прояснениями 739 757 +0.1 44% +5.8° 1.5 км - - - -
09:00 +16.3° Ю,Ю-З 3 - 20 км - облачно с прояснениями 739 757 +0.1 56% +7.4° - - - - -
06:00 +10.6° Ю,Ю-З 2 - 20 км - переменная облачность 739 757 +0.2 79% +7.2° - - Сухая (без трещин) - -
03:00 +7.7° В 1 - 29 км - переменная облачность 739 757 0 91% +6.3° более 2.5 км - - - -
00:00 +9.6° Ю 1 - 28 км - переменная облачность 739 757 +0.2 87% +7.5° - - - - -
Четверг, 22 Июня
Время местн. Темп Ветер Видим Явления Облачность нижн/средн/верх Атм. давл. Влжн Точка росы ВНГО R Сост. почвы Tg s
Напр Скр Прв ур.ст ур.м изм
21:00 +11.4° Ю 1 - 10 км - переменная облачность 738 757 +0.8 81% +8.2° - - - - -
18:00 +16.4° З,Ю-З 4 11 20 км - облачно с прояснениями 738 756 +1.1 51% +6.3° 1 км 0 - - -
15:00 +18° Ю-З 6 10 20 км - облачно с прояснениями 737 755 +0.5 40% +4.2° 1 км - - - -
12:00 +17.5° Ю,Ю-З 5 11 20 км - облачно с прояснениями 736 754 +0.6 45% +5.3° 1 км - - - -
09:00 +16.1° Ю,Ю-З 3 - 20 км - переменная облачность 736 753 +0.5 59% +8.2° более 2.5 км - - - -
06:00 +11.2° Ю 1 - 20 км - переменная облачность 735 753 -0.2 82% +8.2° более 2.5 км - Влажная (без луж) - -
03:00 +8.1° штиль 0 - 26 км - переменная облачность 735 753 -0.2 91% +6.8° более 2.5 км - - - -
00:00 +10.3° З 1 - 30 км - ясно 735 753 +0.8 89% +8.5° более 2.5 км - - - -
Среда, 21 Июня
Время местн. Темп Ветер Видим Явления Облачность нижн/средн/верх Атм. давл. Влжн Точка росы ВНГО R Сост. почвы Tg s
Напр Скр Прв ур.ст ур.м изм
21:00 +14.8° З 2 - 10 км облака рассеиваются {ливневые осадки} ясно 734 752 +1.1 71% +9.6° более 2.5 км - - - -
18:00 +17.6° Ю,Ю-З 2 - 20 км небо без изменений {ливневые осадки} облачно с прояснениями 733 751 0 82% +14.5° 1 км - - - -
15:00 +20.4° Ю-З 3 - 20 км - облачно с прояснениями 733 751 +0.2 69% +14.6° 1.5 км - - - -
12:00 +21.6° Ю,Ю-З 4 - 20 км - облачно с прояснениями 733 750 -0.1 62% +13.9° 1.5 км - - - -
09:00 +21.5° Ю 3 - 20 км - облачно с прояснениями 733 751 -1.1 58% +13° - - - - -
06:00 +14.3° В,Ю-В 1 - 20 км - переменная облачность 734 752 -0.9 87% +12.2° более 2.5 км 0 Сухая (без трещин) +9° -
03:00 +12° В,Ю-В 1 - 27 км - переменная облачность 735 753 -1.1 91% +10.5° - - - - -
00:00 +14.8° штиль 0 - 26 км - облачно с прояснениями 736 754 -0.2 88% +12.8° - - - - -
Вторник, 20 Июня
Время местн. Темп Ветер Видим Явления Облачность нижн/средн/верх Атм. давл. Влжн Точка росы ВНГО R Сост. почвы Tg s
Напр Скр Прв ур.ст ур.м изм
21:00 +16.1° штиль 0 - 10 км - облачно с прояснениями 736 754 +0.3 82% +13.1° более 2.5 км - - - -
18:00 +21.9° З 3 - 20 км - переменная облачность 736 754 -0.6 54% +12.2° - - - - -
15:00 +20.9° З 6 11 20 км - облачно с прояснениями 737 754 -0.5 61% +13.1° 1 км - - - -
12:00 +21.1° З,Ю-З 5 - 20 км - переменная облачность 737 755 +0.2 51% +10.7° 1.5 км - - - -
09:00 +18.7° З 2 - 20 км - переменная облачность 737 755 +0.4 67% +12.4° - - - - -